sensor_id;sensor_type;location;lat;lon;timestamp;temperature;humidity
14604;DHT22;7388;51.078;13.740;2024-01-25T00:00:03;11.80;40.20
14604;DHT22;7388;51.078;13.740;2024-01-25T00:02:29;11.70;40.70
14604;DHT22;7388;51.078;13.740;2024-01-25T00:04:54;11.70;40.50
14604;DHT22;7388;51.078;13.740;2024-01-25T00:07:20;11.80;40.60
14604;DHT22;7388;51.078;13.740;2024-01-25T00:09:46;11.90;40.30
14604;DHT22;7388;51.078;13.740;2024-01-25T00:12:11;12.00;39.80
14604;DHT22;7388;51.078;13.740;2024-01-25T00:14:37;11.90;40.40
14604;DHT22;7388;51.078;13.740;2024-01-25T00:17:04;12.00;40.00
14604;DHT22;7388;51.078;13.740;2024-01-25T00:19:29;12.00;40.00
14604;DHT22;7388;51.078;13.740;2024-01-25T00:21:55;12.10;40.00
14604;DHT22;7388;51.078;13.740;2024-01-25T00:24:21;12.00;39.90
14604;DHT22;7388;51.078;13.740;2024-01-25T00:26:47;12.00;39.80
14604;DHT22;7388;51.078;13.740;2024-01-25T00:29:12;11.90;40.10
14604;DHT22;7388;51.078;13.740;2024-01-25T00:31:38;11.90;40.10
14604;DHT22;7388;51.078;13.740;2024-01-25T00:34:04;11.80;40.30
14604;DHT22;7388;51.078;13.740;2024-01-25T00:36:30;11.80;40.30
14604;DHT22;7388;51.078;13.740;2024-01-25T00:38:56;11.80;40.60
14604;DHT22;7388;51.078;13.740;2024-01-25T00:41:22;11.90;40.40
14604;DHT22;7388;51.078;13.740;2024-01-25T00:43:48;12.00;39.80
14604;DHT22;7388;51.078;13.740;2024-01-25T00:46:14;12.10;39.60
14604;DHT22;7388;51.078;13.740;2024-01-25T00:48:40;12.10;39.50
14604;DHT22;7388;51.078;13.740;2024-01-25T00:51:14;12.20;39.30
14604;DHT22;7388;51.078;13.740;2024-01-25T00:53:40;12.30;38.90
14604;DHT22;7388;51.078;13.740;2024-01-25T00:56:06;12.10;39.20
14604;DHT22;7388;51.078;13.740;2024-01-25T00:58:32;12.00;39.40
14604;DHT22;7388;51.078;13.740;2024-01-25T01:00:58;12.10;39.30
14604;DHT22;7388;51.078;13.740;2024-01-25T01:03:24;12.10;39.30
14604;DHT22;7388;51.078;13.740;2024-01-25T01:05:50;12.10;39.30
14604;DHT22;7388;51.078;13.740;2024-01-25T01:08:16;12.00;39.10
14604;DHT22;7388;51.078;13.740;2024-01-25T01:10:42;12.10;39.30
14604;DHT22;7388;51.078;13.740;2024-01-25T01:13:08;12.20;38.70
14604;DHT22;7388;51.078;13.740;2024-01-25T01:15:33;12.10;39.70
14604;DHT22;7388;51.078;13.740;2024-01-25T01:17:59;11.90;39.50
14604;DHT22;7388;51.078;13.740;2024-01-25T01:20:25;11.90;39.70
14604;DHT22;7388;51.078;13.740;2024-01-25T01:22:52;12.00;39.30
14604;DHT22;7388;51.078;13.740;2024-01-25T01:25:17;12.10;39.30
14604;DHT22;7388;51.078;13.740;2024-01-25T01:27:43;11.90;39.50
14604;DHT22;7388;51.078;13.740;2024-01-25T01:30:09;11.90;39.40
14604;DHT22;7388;51.078;13.740;2024-01-25T01:32:35;11.90;39.50
14604;DHT22;7388;51.078;13.740;2024-01-25T01:35:01;11.90;39.60
14604;DHT22;7388;51.078;13.740;2024-01-25T01:37:27;11.90;39.60
14604;DHT22;7388;51.078;13.740;2024-01-25T01:39:52;12.00;39.50
14604;DHT22;7388;51.078;13.740;2024-01-25T01:42:21;12.10;39.30
14604;DHT22;7388;51.078;13.740;2024-01-25T01:44:48;12.20;39.00
14604;DHT22;7388;51.078;13.740;2024-01-25T01:47:15;12.10;38.80
14604;DHT22;7388;51.078;13.740;2024-01-25T01:49:42;12.10;39.10
14604;DHT22;7388;51.078;13.740;2024-01-25T01:52:08;12.00;39.10
14604;DHT22;7388;51.078;13.740;2024-01-25T01:54:34;11.90;39.30
14604;DHT22;7388;51.078;13.740;2024-01-25T01:57:00;11.90;39.30
14604;DHT22;7388;51.078;13.740;2024-01-25T01:59:27;11.80;39.70
14604;DHT22;7388;51.078;13.740;2024-01-25T02:01:54;11.70;39.80
14604;DHT22;7388;51.078;13.740;2024-01-25T02:04:20;11.90;39.60
14604;DHT22;7388;51.078;13.740;2024-01-25T02:06:46;11.90;39.40
14604;DHT22;7388;51.078;13.740;2024-01-25T02:09:12;12.00;39.10
14604;DHT22;7388;51.078;13.740;2024-01-25T02:11:38;12.00;39.10
14604;DHT22;7388;51.078;13.740;2024-01-25T02:14:04;12.00;39.30
14604;DHT22;7388;51.078;13.740;2024-01-25T02:16:30;11.90;39.10
14604;DHT22;7388;51.078;13.740;2024-01-25T02:18:56;11.90;39.10
14604;DHT22;7388;51.078;13.740;2024-01-25T02:21:23;11.80;39.30
14604;DHT22;7388;51.078;13.740;2024-01-25T02:23:50;11.80;39.30
14604;DHT22;7388;51.078;13.740;2024-01-25T02:26:16;11.90;39.60
14604;DHT22;7388;51.078;13.740;2024-01-25T02:28:41;11.80;39.10
14604;DHT22;7388;51.078;13.740;2024-01-25T02:31:07;11.80;39.50
14604;DHT22;7388;51.078;13.740;2024-01-25T02:33:33;11.70;39.20
14604;DHT22;7388;51.078;13.740;2024-01-25T02:35:58;11.60;39.50
14604;DHT22;7388;51.078;13.740;2024-01-25T02:38:24;11.70;39.60
14604;DHT22;7388;51.078;13.740;2024-01-25T02:40:50;11.80;39.40
14604;DHT22;7388;51.078;13.740;2024-01-25T02:43:16;11.90;39.10
14604;DHT22;7388;51.078;13.740;2024-01-25T02:45:42;12.00;39.10
14604;DHT22;7388;51.078;13.740;2024-01-25T02:48:07;12.00;38.80
14604;DHT22;7388;51.078;13.740;2024-01-25T02:50:33;12.00;39.00
14604;DHT22;7388;51.078;13.740;2024-01-25T02:52:59;11.90;38.90
14604;DHT22;7388;51.078;13.740;2024-01-25T02:55:24;11.90;39.20
14604;DHT22;7388;51.078;13.740;2024-01-25T02:57:50;11.90;39.00
14604;DHT22;7388;51.078;13.740;2024-01-25T03:00:16;11.80;39.20
14604;DHT22;7388;51.078;13.740;2024-01-25T03:02:42;11.90;39.30
14604;DHT22;7388;51.078;13.740;2024-01-25T03:05:07;11.80;39.30
14604;DHT22;7388;51.078;13.740;2024-01-25T03:07:33;11.70;39.50
14604;DHT22;7388;51.078;13.740;2024-01-25T03:09:59;11.70;39.40
14604;DHT22;7388;51.078;13.740;2024-01-25T03:12:25;11.70;39.70
14604;DHT22;7388;51.078;13.740;2024-01-25T03:14:51;11.80;39.30
14604;DHT22;7388;51.078;13.740;2024-01-25T03:17:16;11.80;39.40
14604;DHT22;7388;51.078;13.740;2024-01-25T03:19:42;11.90;39.30
14604;DHT22;7388;51.078;13.740;2024-01-25T03:22:08;11.80;39.20
14604;DHT22;7388;51.078;13.740;2024-01-25T03:24:37;11.80;39.30
14604;DHT22;7388;51.078;13.740;2024-01-25T03:27:04;11.70;39.40
14604;DHT22;7388;51.078;13.740;2024-01-25T03:29:30;11.70;39.50
14604;DHT22;7388;51.078;13.740;2024-01-25T03:31:56;11.60;39.50
14604;DHT22;7388;51.078;13.740;2024-01-25T03:34:22;11.60;39.50
14604;DHT22;7388;51.078;13.740;2024-01-25T03:36:48;11.70;39.40
14604;DHT22;7388;51.078;13.740;2024-01-25T03:39:15;11.70;39.20
14604;DHT22;7388;51.078;13.740;2024-01-25T03:41:42;11.70;39.30
14604;DHT22;7388;51.078;13.740;2024-01-25T03:44:08;11.80;38.70
14604;DHT22;7388;51.078;13.740;2024-01-25T03:46:34;11.90;38.90
14604;DHT22;7388;51.078;13.740;2024-01-25T03:48:59;11.80;38.30
14604;DHT22;7388;51.078;13.740;2024-01-25T03:51:25;11.90;38.70
14604;DHT22;7388;51.078;13.740;2024-01-25T03:53:52;11.90;38.60
14604;DHT22;7388;51.078;13.740;2024-01-25T03:56:18;12.00;38.40
14604;DHT22;7388;51.078;13.740;2024-01-25T03:58:44;12.00;38.50
14604;DHT22;7388;51.078;13.740;2024-01-25T04:01:10;12.00;38.50
14604;DHT22;7388;51.078;13.740;2024-01-25T04:03:36;11.90;38.10
14604;DHT22;7388;51.078;13.740;2024-01-25T04:06:02;11.80;38.50
14604;DHT22;7388;51.078;13.740;2024-01-25T04:08:27;11.70;38.70
14604;DHT22;7388;51.078;13.740;2024-01-25T04:10:53;11.70;38.80
14604;DHT22;7388;51.078;13.740;2024-01-25T04:13:19;11.80;38.80
14604;DHT22;7388;51.078;13.740;2024-01-25T04:15:45;11.80;38.80
14604;DHT22;7388;51.078;13.740;2024-01-25T04:18:10;11.80;38.70
14604;DHT22;7388;51.078;13.740;2024-01-25T04:20:36;11.60;38.80
14604;DHT22;7388;51.078;13.740;2024-01-25T04:23:02;11.60;39.10
14604;DHT22;7388;51.078;13.740;2024-01-25T04:25:28;11.50;39.00
14604;DHT22;7388;51.078;13.740;2024-01-25T04:27:53;11.60;39.10
14604;DHT22;7388;51.078;13.740;2024-01-25T04:30:19;11.60;39.00
14604;DHT22;7388;51.078;13.740;2024-01-25T04:32:45;11.60;38.80
14604;DHT22;7388;51.078;13.740;2024-01-25T04:35:11;11.60;39.10
14604;DHT22;7388;51.078;13.740;2024-01-25T04:37:36;11.60;38.80
14604;DHT22;7388;51.078;13.740;2024-01-25T04:40:02;11.50;38.80
14604;DHT22;7388;51.078;13.740;2024-01-25T04:42:28;11.50;39.00
14604;DHT22;7388;51.078;13.740;2024-01-25T04:44:54;11.70;38.80
14604;DHT22;7388;51.078;13.740;2024-01-25T04:47:20;11.70;38.70
14604;DHT22;7388;51.078;13.740;2024-01-25T04:49:46;11.80;38.40
14604;DHT22;7388;51.078;13.740;2024-01-25T04:52:12;11.70;38.20
14604;DHT22;7388;51.078;13.740;2024-01-25T04:54:37;11.60;38.60
14604;DHT22;7388;51.078;13.740;2024-01-25T04:57:03;11.60;38.60
14604;DHT22;7388;51.078;13.740;2024-01-25T04:59:32;11.60;38.70
14604;DHT22;7388;51.078;13.740;2024-01-25T05:01:59;11.50;38.90
14604;DHT22;7388;51.078;13.740;2024-01-25T05:04:25;11.50;39.10
14604;DHT22;7388;51.078;13.740;2024-01-25T05:06:50;11.40;39.10
14604;DHT22;7388;51.078;13.740;2024-01-25T05:09:16;11.40;38.90
14604;DHT22;7388;51.078;13.740;2024-01-25T05:11:42;11.40;39.00
14604;DHT22;7388;51.078;13.740;2024-01-25T05:14:08;11.40;38.80
14604;DHT22;7388;51.078;13.740;2024-01-25T05:16:33;11.50;38.90
14604;DHT22;7388;51.078;13.740;2024-01-25T05:19:00;11.50;38.50
14604;DHT22;7388;51.078;13.740;2024-01-25T05:21:27;11.60;38.50
14604;DHT22;7388;51.078;13.740;2024-01-25T05:23:52;11.50;38.50
14604;DHT22;7388;51.078;13.740;2024-01-25T05:26:18;11.50;38.70
14604;DHT22;7388;51.078;13.740;2024-01-25T05:28:44;11.40;38.70
14604;DHT22;7388;51.078;13.740;2024-01-25T05:31:10;11.50;38.90
14604;DHT22;7388;51.078;13.740;2024-01-25T05:33:41;11.60;38.30
14604;DHT22;7388;51.078;13.740;2024-01-25T05:36:07;11.60;38.00
14604;DHT22;7388;51.078;13.740;2024-01-25T05:38:33;11.50;38.30
14604;DHT22;7388;51.078;13.740;2024-01-25T05:40:59;11.50;38.20
14604;DHT22;7388;51.078;13.740;2024-01-25T05:43:25;11.50;38.60
14604;DHT22;7388;51.078;13.740;2024-01-25T05:45:51;11.60;38.10
14604;DHT22;7388;51.078;13.740;2024-01-25T05:48:17;11.60;38.10
14604;DHT22;7388;51.078;13.740;2024-01-25T05:50:43;11.50;38.00
14604;DHT22;7388;51.078;13.740;2024-01-25T05:53:08;11.50;38.40
14604;DHT22;7388;51.078;13.740;2024-01-25T05:55:34;11.40;38.50
14604;DHT22;7388;51.078;13.740;2024-01-25T05:58:00;11.50;38.50
14604;DHT22;7388;51.078;13.740;2024-01-25T06:00:26;11.50;38.20
14604;DHT22;7388;51.078;13.740;2024-01-25T06:02:51;11.50;38.30
14604;DHT22;7388;51.078;13.740;2024-01-25T06:05:17;11.50;38.50
14604;DHT22;7388;51.078;13.740;2024-01-25T06:07:44;11.50;38.40
14604;DHT22;7388;51.078;13.740;2024-01-25T06:10:09;11.60;38.50
14604;DHT22;7388;51.078;13.740;2024-01-25T06:12:35;11.70;38.50
14604;DHT22;7388;51.078;13.740;2024-01-25T06:15:01;11.70;38.20
14604;DHT22;7388;51.078;13.740;2024-01-25T06:17:27;11.60;38.40
14604;DHT22;7388;51.078;13.740;2024-01-25T06:19:52;11.70;38.50
14604;DHT22;7388;51.078;13.740;2024-01-25T06:22:18;11.80;38.50
14604;DHT22;7388;51.078;13.740;2024-01-25T06:24:44;11.60;38.60
14604;DHT22;7388;51.078;13.740;2024-01-25T06:27:10;11.40;38.70
14604;DHT22;7388;51.078;13.740;2024-01-25T06:29:35;11.30;38.90
14604;DHT22;7388;51.078;13.740;2024-01-25T06:32:01;11.20;38.90
14604;DHT22;7388;51.078;13.740;2024-01-25T06:34:27;11.20;39.10
14604;DHT22;7388;51.078;13.740;2024-01-25T06:36:53;11.10;39.20
14604;DHT22;7388;51.078;13.740;2024-01-25T06:39:19;11.00;39.40
14604;DHT22;7388;51.078;13.740;2024-01-25T06:41:45;11.10;39.50
14604;DHT22;7388;51.078;13.740;2024-01-25T06:44:10;11.10;39.20
14604;DHT22;7388;51.078;13.740;2024-01-25T06:46:36;11.10;39.20
14604;DHT22;7388;51.078;13.740;2024-01-25T06:49:02;11.00;39.20
14604;DHT22;7388;51.078;13.740;2024-01-25T06:51:28;11.10;39.40
14604;DHT22;7388;51.078;13.740;2024-01-25T06:53:54;11.10;39.30
14604;DHT22;7388;51.078;13.740;2024-01-25T06:56:20;11.10;39.30
14604;DHT22;7388;51.078;13.740;2024-01-25T06:58:45;11.20;38.90
14604;DHT22;7388;51.078;13.740;2024-01-25T07:01:11;11.20;38.70
14604;DHT22;7388;51.078;13.740;2024-01-25T07:03:37;11.10;38.80
14604;DHT22;7388;51.078;13.740;2024-01-25T07:06:03;11.10;38.80
14604;DHT22;7388;51.078;13.740;2024-01-25T07:08:29;10.90;39.00
14604;DHT22;7388;51.078;13.740;2024-01-25T07:10:55;11.00;39.00
14604;DHT22;7388;51.078;13.740;2024-01-25T07:13:21;11.10;39.10
14604;DHT22;7388;51.078;13.740;2024-01-25T07:15:47;11.10;38.80
14604;DHT22;7388;51.078;13.740;2024-01-25T07:18:13;11.10;38.70
14604;DHT22;7388;51.078;13.740;2024-01-25T07:20:39;11.30;38.40
14604;DHT22;7388;51.078;13.740;2024-01-25T07:23:05;11.10;38.20
14604;DHT22;7388;51.078;13.740;2024-01-25T07:25:30;11.10;38.40
14604;DHT22;7388;51.078;13.740;2024-01-25T07:27:56;10.30;38.00
14604;DHT22;7388;51.078;13.740;2024-01-25T07:30:22;11.30;38.10
14604;DHT22;7388;51.078;13.740;2024-01-25T07:32:48;11.20;38.20
14604;DHT22;7388;51.078;13.740;2024-01-25T07:35:15;11.10;38.40
14604;DHT22;7388;51.078;13.740;2024-01-25T07:37:41;11.10;38.50
14604;DHT22;7388;51.078;13.740;2024-01-25T07:40:08;11.20;38.20
14604;DHT22;7388;51.078;13.740;2024-01-25T07:42:34;11.10;38.40
14604;DHT22;7388;51.078;13.740;2024-01-25T07:45:00;11.30;38.40
14604;DHT22;7388;51.078;13.740;2024-01-25T07:47:26;11.40;38.20
14604;DHT22;7388;51.078;13.740;2024-01-25T07:49:52;11.50;38.00
14604;DHT22;7388;51.078;13.740;2024-01-25T07:52:17;11.50;38.20
14604;DHT22;7388;51.078;13.740;2024-01-25T07:54:43;11.50;38.10
14604;DHT22;7388;51.078;13.740;2024-01-25T07:57:10;11.50;38.00
14604;DHT22;7388;51.078;13.740;2024-01-25T07:59:35;11.40;38.10
14604;DHT22;7388;51.078;13.740;2024-01-25T08:02:01;11.40;38.10
14604;DHT22;7388;51.078;13.740;2024-01-25T08:04:27;11.50;38.30
14604;DHT22;7388;51.078;13.740;2024-01-25T08:06:53;11.60;38.10
14604;DHT22;7388;51.078;13.740;2024-01-25T08:09:19;11.50;37.90
14604;DHT22;7388;51.078;13.740;2024-01-25T08:11:44;11.50;37.70
14604;DHT22;7388;51.078;13.740;2024-01-25T08:14:11;11.40;37.60
14604;DHT22;7388;51.078;13.740;2024-01-25T08:16:37;11.40;38.10
14604;DHT22;7388;51.078;13.740;2024-01-25T08:19:03;11.50;37.70
14604;DHT22;7388;51.078;13.740;2024-01-25T08:21:28;11.60;37.80
14604;DHT22;7388;51.078;13.740;2024-01-25T08:23:54;11.70;37.70
14604;DHT22;7388;51.078;13.740;2024-01-25T08:26:20;11.70;37.60
14604;DHT22;7388;51.078;13.740;2024-01-25T08:28:46;11.60;37.70
14604;DHT22;7388;51.078;13.740;2024-01-25T08:31:12;11.60;37.60
14604;DHT22;7388;51.078;13.740;2024-01-25T08:33:39;11.60;38.10
14604;DHT22;7388;51.078;13.740;2024-01-25T08:36:10;11.70;37.80
14604;DHT22;7388;51.078;13.740;2024-01-25T08:38:36;11.60;38.80
14604;DHT22;7388;51.078;13.740;2024-01-25T08:41:02;11.60;38.10
14604;DHT22;7388;51.078;13.740;2024-01-25T08:43:28;11.70;38.20
14604;DHT22;7388;51.078;13.740;2024-01-25T08:45:53;11.60;38.30
14604;DHT22;7388;51.078;13.740;2024-01-25T08:48:19;11.70;38.40
14604;DHT22;7388;51.078;13.740;2024-01-25T08:50:45;11.70;38.50
14604;DHT22;7388;51.078;13.740;2024-01-25T08:53:11;11.70;38.60
14604;DHT22;7388;51.078;13.740;2024-01-25T08:55:36;11.70;38.50
14604;DHT22;7388;51.078;13.740;2024-01-25T08:58:02;11.80;38.50
14604;DHT22;7388;51.078;13.740;2024-01-25T09:00:28;11.80;38.60
14604;DHT22;7388;51.078;13.740;2024-01-25T09:02:54;11.60;38.90
14604;DHT22;7388;51.078;13.740;2024-01-25T09:05:19;11.70;38.90
14604;DHT22;7388;51.078;13.740;2024-01-25T09:07:45;11.70;39.00
14604;DHT22;7388;51.078;13.740;2024-01-25T09:10:11;11.80;38.60
14604;DHT22;7388;51.078;13.740;2024-01-25T09:12:38;11.70;39.00
14604;DHT22;7388;51.078;13.740;2024-01-25T09:15:05;11.70;38.90
14604;DHT22;7388;51.078;13.740;2024-01-25T09:17:30;11.80;38.80
14604;DHT22;7388;51.078;13.740;2024-01-25T09:19:56;11.90;38.80
14604;DHT22;7388;51.078;13.740;2024-01-25T09:22:24;11.80;38.90
14604;DHT22;7388;51.078;13.740;2024-01-25T09:24:50;11.80;39.10
14604;DHT22;7388;51.078;13.740;2024-01-25T09:27:15;11.90;38.70
14604;DHT22;7388;51.078;13.740;2024-01-25T09:29:42;12.00;38.60
14604;DHT22;7388;51.078;13.740;2024-01-25T09:32:08;12.10;38.50
14604;DHT22;7388;51.078;13.740;2024-01-25T09:34:36;12.20;38.80
14604;DHT22;7388;51.078;13.740;2024-01-25T09:37:02;12.20;38.10
14604;DHT22;7388;51.078;13.740;2024-01-25T09:39:28;12.20;38.30
14604;DHT22;7388;51.078;13.740;2024-01-25T09:41:54;12.20;38.40
14604;DHT22;7388;51.078;13.740;2024-01-25T09:44:20;12.10;38.40
14604;DHT22;7388;51.078;13.740;2024-01-25T09:46:46;12.00;38.80
14604;DHT22;7388;51.078;13.740;2024-01-25T09:49:12;12.10;38.60
14604;DHT22;7388;51.078;13.740;2024-01-25T09:51:40;12.10;38.60
14604;DHT22;7388;51.078;13.740;2024-01-25T09:54:07;12.10;38.50
14604;DHT22;7388;51.078;13.740;2024-01-25T09:56:34;12.10;38.80
14604;DHT22;7388;51.078;13.740;2024-01-25T09:59:00;12.00;38.60
14604;DHT22;7388;51.078;13.740;2024-01-25T10:01:26;12.00;38.80
14604;DHT22;7388;51.078;13.740;2024-01-25T10:03:52;12.10;38.80
14604;DHT22;7388;51.078;13.740;2024-01-25T10:06:18;12.10;38.60
14604;DHT22;7388;51.078;13.740;2024-01-25T10:08:46;12.00;38.60
14604;DHT22;7388;51.078;13.740;2024-01-25T10:11:12;11.90;38.80
14604;DHT22;7388;51.078;13.740;2024-01-25T10:13:41;11.90;38.80
14604;DHT22;7388;51.078;13.740;2024-01-25T10:16:11;12.10;38.70
14604;DHT22;7388;51.078;13.740;2024-01-25T10:18:39;12.00;38.00
14604;DHT22;7388;51.078;13.740;2024-01-25T10:21:05;12.00;38.80
14604;DHT22;7388;51.078;13.740;2024-01-25T10:23:31;11.90;38.50
14604;DHT22;7388;51.078;13.740;2024-01-25T10:25:58;12.00;38.10
14604;DHT22;7388;51.078;13.740;2024-01-25T10:28:24;12.00;38.20
14604;DHT22;7388;51.078;13.740;2024-01-25T10:30:56;12.20;38.10
14604;DHT22;7388;51.078;13.740;2024-01-25T10:33:24;12.40;38.10
14604;DHT22;7388;51.078;13.740;2024-01-25T10:35:54;12.50;37.80
14604;DHT22;7388;51.078;13.740;2024-01-25T10:38:24;12.60;37.50
14604;DHT22;7388;51.078;13.740;2024-01-25T10:40:50;12.40;37.70
14604;DHT22;7388;51.078;13.740;2024-01-25T10:43:18;12.40;37.50
14604;DHT22;7388;51.078;13.740;2024-01-25T10:45:44;12.40;37.60
14604;DHT22;7388;51.078;13.740;2024-01-25T10:48:11;12.40;37.50
14604;DHT22;7388;51.078;13.740;2024-01-25T10:50:37;12.30;37.70
14604;DHT22;7388;51.078;13.740;2024-01-25T10:53:06;12.30;38.10
14604;DHT22;7388;51.078;13.740;2024-01-25T10:55:33;12.30;37.80
14604;DHT22;7388;51.078;13.740;2024-01-25T10:57:59;12.40;37.50
14604;DHT22;7388;51.078;13.740;2024-01-25T11:00:25;12.50;37.40
14604;DHT22;7388;51.078;13.740;2024-01-25T11:02:52;12.50;37.30
14604;DHT22;7388;51.078;13.740;2024-01-25T11:05:17;12.30;37.40
14604;DHT22;7388;51.078;13.740;2024-01-25T11:07:48;12.30;37.40
14604;DHT22;7388;51.078;13.740;2024-01-25T11:12:50;12.30;37.20
14604;DHT22;7388;51.078;13.740;2024-01-25T11:15:30;12.30;37.90
14604;DHT22;7388;51.078;13.740;2024-01-25T11:17:57;12.30;37.60
14604;DHT22;7388;51.078;13.740;2024-01-25T11:20:23;12.30;37.90
14604;DHT22;7388;51.078;13.740;2024-01-25T11:22:56;12.40;37.70
14604;DHT22;7388;51.078;13.740;2024-01-25T11:25:21;12.40;37.60
14604;DHT22;7388;51.078;13.740;2024-01-25T11:27:51;12.40;37.70
14604;DHT22;7388;51.078;13.740;2024-01-25T11:30:19;12.40;37.50
14604;DHT22;7388;51.078;13.740;2024-01-25T11:32:49;12.50;37.90
14604;DHT22;7388;51.078;13.740;2024-01-25T11:35:15;12.50;37.70
14604;DHT22;7388;51.078;13.740;2024-01-25T11:37:46;12.40;37.70
14604;DHT22;7388;51.078;13.740;2024-01-25T11:40:12;12.40;37.90
14604;DHT22;7388;51.078;13.740;2024-01-25T11:42:39;12.50;37.80
14604;DHT22;7388;51.078;13.740;2024-01-25T11:45:12;12.50;38.00
14604;DHT22;7388;51.078;13.740;2024-01-25T11:47:39;12.50;37.80
14604;DHT22;7388;51.078;13.740;2024-01-25T11:50:06;12.50;37.70
14604;DHT22;7388;51.078;13.740;2024-01-25T11:52:35;12.50;37.70
14604;DHT22;7388;51.078;13.740;2024-01-25T11:55:08;12.60;37.20
14604;DHT22;7388;51.078;13.740;2024-01-25T11:57:39;12.80;36.40
14604;DHT22;7388;51.078;13.740;2024-01-25T12:00:13;13.00;37.70
14604;DHT22;7388;51.078;13.740;2024-01-25T12:02:40;13.30;37.20
14604;DHT22;7388;51.078;13.740;2024-01-25T12:05:08;13.40;35.40
14604;DHT22;7388;51.078;13.740;2024-01-25T12:07:35;13.50;35.20
14604;DHT22;7388;51.078;13.740;2024-01-25T12:10:06;13.50;34.20
14604;DHT22;7388;51.078;13.740;2024-01-25T12:12:32;13.40;34.30
14604;DHT22;7388;51.078;13.740;2024-01-25T12:15:01;13.30;34.40
14604;DHT22;7388;51.078;13.740;2024-01-25T12:17:29;13.10;35.20
14604;DHT22;7388;51.078;13.740;2024-01-25T12:19:59;13.10;34.90
14604;DHT22;7388;51.078;13.740;2024-01-25T12:22:27;13.00;35.00
14604;DHT22;7388;51.078;13.740;2024-01-25T12:24:54;13.00;35.50
14604;DHT22;7388;51.078;13.740;2024-01-25T12:27:24;13.10;35.90
14604;DHT22;7388;51.078;13.740;2024-01-25T12:29:51;13.20;36.00
14604;DHT22;7388;51.078;13.740;2024-01-25T12:32:22;13.20;36.00
14604;DHT22;7388;51.078;13.740;2024-01-25T12:34:54;13.20;36.10
14604;DHT22;7388;51.078;13.740;2024-01-25T12:37:20;13.00;36.10
14604;DHT22;7388;51.078;13.740;2024-01-25T12:39:46;12.90;36.50
14604;DHT22;7388;51.078;13.740;2024-01-25T12:42:12;12.90;36.60
14604;DHT22;7388;51.078;13.740;2024-01-25T12:44:39;12.90;36.90
14604;DHT22;7388;51.078;13.740;2024-01-25T12:47:05;12.90;36.80
14604;DHT22;7388;51.078;13.740;2024-01-25T12:49:33;12.80;37.20
14604;DHT22;7388;51.078;13.740;2024-01-25T12:51:59;12.70;37.50
14604;DHT22;7388;51.078;13.740;2024-01-25T12:54:26;12.80;37.30
14604;DHT22;7388;51.078;13.740;2024-01-25T12:56:52;12.80;37.40
14604;DHT22;7388;51.078;13.740;2024-01-25T12:59:18;12.90;37.30
14604;DHT22;7388;51.078;13.740;2024-01-25T13:01:44;12.90;36.90
14604;DHT22;7388;51.078;13.740;2024-01-25T13:04:09;12.90;37.20
14604;DHT22;7388;51.078;13.740;2024-01-25T13:06:36;12.90;37.40
14604;DHT22;7388;51.078;13.740;2024-01-25T13:09:01;12.90;37.20
14604;DHT22;7388;51.078;13.740;2024-01-25T13:11:29;13.00;37.10
14604;DHT22;7388;51.078;13.740;2024-01-25T13:13:55;12.90;36.90
14604;DHT22;7388;51.078;13.740;2024-01-25T13:16:21;13.10;37.00
14604;DHT22;7388;51.078;13.740;2024-01-25T13:18:46;13.10;37.00
14604;DHT22;7388;51.078;13.740;2024-01-25T13:21:12;13.20;36.70
14604;DHT22;7388;51.078;13.740;2024-01-25T13:23:38;13.20;36.60
14604;DHT22;7388;51.078;13.740;2024-01-25T13:26:04;13.30;36.70
14604;DHT22;7388;51.078;13.740;2024-01-25T13:28:29;13.20;36.50
14604;DHT22;7388;51.078;13.740;2024-01-25T13:30:56;13.20;36.70
14604;DHT22;7388;51.078;13.740;2024-01-25T13:33:23;13.00;36.50
14604;DHT22;7388;51.078;13.740;2024-01-25T13:35:48;12.80;37.10
14604;DHT22;7388;51.078;13.740;2024-01-25T13:38:14;12.90;37.20
14604;DHT22;7388;51.078;13.740;2024-01-25T13:40:42;12.90;36.90
14604;DHT22;7388;51.078;13.740;2024-01-25T13:43:08;12.80;37.00
14604;DHT22;7388;51.078;13.740;2024-01-25T13:45:33;12.80;37.60
14604;DHT22;7388;51.078;13.740;2024-01-25T13:47:59;12.70;37.20
14604;DHT22;7388;51.078;13.740;2024-01-25T13:50:25;12.60;37.50
14604;DHT22;7388;51.078;13.740;2024-01-25T13:52:51;12.70;37.40
14604;DHT22;7388;51.078;13.740;2024-01-25T13:55:16;12.70;37.20
14604;DHT22;7388;51.078;13.740;2024-01-25T13:57:42;12.80;37.10
14604;DHT22;7388;51.078;13.740;2024-01-25T14:00:08;12.70;37.40
14604;DHT22;7388;51.078;13.740;2024-01-25T14:02:35;12.70;37.20
14604;DHT22;7388;51.078;13.740;2024-01-25T14:05:01;12.70;37.40
14604;DHT22;7388;51.078;13.740;2024-01-25T14:07:27;12.60;37.30
14604;DHT22;7388;51.078;13.740;2024-01-25T14:09:53;12.60;37.70
14604;DHT22;7388;51.078;13.740;2024-01-25T14:12:19;12.60;37.70
14604;DHT22;7388;51.078;13.740;2024-01-25T14:14:45;12.70;37.70
14604;DHT22;7388;51.078;13.740;2024-01-25T14:17:11;12.70;37.40
14604;DHT22;7388;51.078;13.740;2024-01-25T14:19:36;12.80;37.50
14604;DHT22;7388;51.078;13.740;2024-01-25T14:22:02;12.80;37.20
14604;DHT22;7388;51.078;13.740;2024-01-25T14:24:28;12.80;37.10
14604;DHT22;7388;51.078;13.740;2024-01-25T14:26:54;12.70;37.30
14604;DHT22;7388;51.078;13.740;2024-01-25T14:29:19;12.70;37.20
14604;DHT22;7388;51.078;13.740;2024-01-25T14:31:45;12.70;37.60
14604;DHT22;7388;51.078;13.740;2024-01-25T14:34:11;12.70;37.40
14604;DHT22;7388;51.078;13.740;2024-01-25T14:36:37;12.70;37.60
14604;DHT22;7388;51.078;13.740;2024-01-25T14:39:02;12.60;37.20
14604;DHT22;7388;51.078;13.740;2024-01-25T14:41:29;12.60;37.40
14604;DHT22;7388;51.078;13.740;2024-01-25T14:43:56;12.50;37.40
14604;DHT22;7388;51.078;13.740;2024-01-25T14:46:21;12.40;37.60
14604;DHT22;7388;51.078;13.740;2024-01-25T14:48:47;12.40;37.40
14604;DHT22;7388;51.078;13.740;2024-01-25T14:51:13;12.30;37.40
14604;DHT22;7388;51.078;13.740;2024-01-25T14:53:39;12.30;37.70
14604;DHT22;7388;51.078;13.740;2024-01-25T14:56:05;12.30;37.70
14604;DHT22;7388;51.078;13.740;2024-01-25T14:58:31;12.20;37.70
14604;DHT22;7388;51.078;13.740;2024-01-25T15:00:57;12.20;38.50
14604;DHT22;7388;51.078;13.740;2024-01-25T15:03:23;12.20;37.80
14604;DHT22;7388;51.078;13.740;2024-01-25T15:05:48;12.10;38.10
14604;DHT22;7388;51.078;13.740;2024-01-25T15:08:14;12.10;38.10
14604;DHT22;7388;51.078;13.740;2024-01-25T15:10:40;12.20;38.00
14604;DHT22;7388;51.078;13.740;2024-01-25T15:13:06;12.20;37.90
14604;DHT22;7388;51.078;13.740;2024-01-25T15:15:31;12.20;37.80
14604;DHT22;7388;51.078;13.740;2024-01-25T15:17:58;12.20;37.90
14604;DHT22;7388;51.078;13.740;2024-01-25T15:20:23;12.10;37.90
14604;DHT22;7388;51.078;13.740;2024-01-25T15:22:50;12.20;37.90
14604;DHT22;7388;51.078;13.740;2024-01-25T15:25:16;12.10;38.00